Latest Weather Observations for Rowley Shoals

IDW60801

Issued at 12:02 pm WST Wednesday 4 March 2015 (issued every 30 minutes, with the page automatically refreshed every 10 minutes)

About weather observations | Map of weather stations | Latest weather observations for WA | Other Formats
Station Details ID: 200713 Name: ROWLEY SHOALS Lat: -17.52 Lon: 118.95 Height: 0.0 m
Data from the previous 72 hours. | See also: Recent months for locations in Western Australia
Date/Time
WST
Temp
°C
App
Temp
°C
Dew
Point
Rel
Hum
%
Delta-T
°C
Wind Press
QNH
hPa
Press
MSL
hPa
Rain
since 9 am
mm
Dir
 
Spd
km/h
Gust
km/h
Spd
kts
Gust
kts
04/12:00pm - - - - - SSE 20 26 11 14 1007.0 1007.0 -
04/11:30am - - - - - S 26 37 14 20 1007.2 1007.2 -
04/11:15am - - - - - S 30 35 16 19 1007.4 1007.4 -
04/11:00am - - - - - SSW 37 46 20 25 1007.4 1007.4 -
04/10:30am - - - - - SSW 37 46 20 25 1007.3 1007.3 -
04/10:00am - - - - - SSW 35 44 19 24 1008.0 1007.5 -
04/09:30am - - - - - SSW 32 37 17 20 1008.3 1008.3 -
04/09:26am - - - - - S 28 37 15 20 1008.3 1008.3 -
04/09:00am - - - - - SSE 15 19 8 10 1008.8 1008.6 -
04/08:30am - - - - - S 15 20 8 11 1008.6 1008.6 -
04/08:00am - - - - - SSE 24 32 13 17 1008.6 1008.6 -
04/07:30am - - - - - SSW 35 50 19 27 1008.5 1008.5 -
04/07:11am 24.7 - - - - SSW 22 50 12 27 1008.2 1008.2 -
04/07:00am 24.3 - - - - WSW 4 11 2 6 1008.5 1008.6 -
04/06:30am 23.5 - - - - ESE 19 35 10 19 1009.2 1009.2 -
04/06:21am 24.6 - - - - S 30 50 16 27 1008.7 1008.7 -
04/06:14am 26.2 - - - - SSW 24 50 13 27 1007.2 1007.2 -
04/06:00am 28.5 - - - - WSW 24 32 13 17 1006.7 1006.7 -
04/05:30am 29.0 - - - - WSW 32 39 17 21 1005.9 1005.9 -
04/05:00am 29.0 - - - - SW 33 41 18 22 1005.1 1004.9 -
04/04:30am 28.8 - - - - WSW 32 37 17 20 1005.7 1005.7 -
04/04:00am 28.9 - - - - SW 30 35 16 19 1005.9 1005.9 -
04/03:30am 29.0 - - - - WSW 28 32 15 17 1005.8 1005.8 -
04/03:00am 28.7 - - - - WSW 28 32 15 17 1005.3 1005.3 -
04/02:30am - - - - - WSW 24 28 13 15 1004.8 1004.8 -
04/02:00am - - - - - WSW 22 28 12 15 1005.2 1005.1 -
04/01:30am - - - - - WSW 19 22 10 12 1005.5 1005.5 -
04/01:00am - - - - - WSW 19 22 10 12 1005.9 1005.6 -
04/12:30am - - - - - WSW 15 19 8 10 1006.3 1006.3 -
04/12:00am - - - - - W 13 15 7 8 1006.9 1006.9 -
 
Date/Time
WST
Temp
°C
App
Temp
°C
Dew
Point
Rel
Hum
%
Delta-T
°C
Wind Press
QNH
hPa
Press
MSL
hPa
Rain
since 9 am
mm
Dir
 
Spd
km/h
Gust
km/h
Spd
kts
Gust
kts
03/11:30pm 28.5 - - - - WNW 15 19 8 10 1007.1 1007.1 -
03/11:00pm 28.2 - - - - NW 17 20 9 11 1007.5 1007.4 -
03/10:30pm 28.3 - - - - NW 17 20 9 11 1007.5 1007.5 -
03/10:00pm 28.1 - - - - NW 19 20 10 11 1007.5 1007.4 -
03/09:34pm 27.9 - - - - N 20 24 11 13 1007.5 1007.5 -
03/09:33pm -43.1 - - - - N 20 24 11 13 1007.5 1007.5 -
03/09:31pm 27.7 - - - - N 20 24 11 13 1007.5 1007.5 -
03/09:30pm -42.2 - - - - N 20 24 11 13 1007.5 1007.5 -
03/09:22pm 27.7 - - - - N 20 24 11 13 1007.5 1007.5 -
03/09:21pm -34.1 - - - - N 20 24 11 13 1007.5 1007.5 -
03/09:20pm -23.4 - - - - N 20 24 11 13 1007.4 1007.4 -
03/09:19pm -35.8 - - - - N 20 24 11 13 1007.4 1007.4 -
03/09:00pm 27.6 - - - - N 24 30 13 16 1007.4 1007.3 -
03/08:30pm 27.3 - - - - NNE 30 35 16 19 1007.7 1007.7 -
03/08:00pm 26.9 - - - - NE 44 52 24 28 1008.0 1007.9 -
03/07:42pm 27.0 - - - - NE 24 50 13 27 1007.8 1007.8 -
03/07:30pm 29.5 - - - - ESE 7 9 4 5 1007.4 1007.4 -
03/07:00pm 29.3 - - - - SSE 9 11 5 6 1006.8 1007.0 -
03/06:30pm 29.3 - - - - ESE 9 11 5 6 1006.6 1006.6 -
03/06:00pm 29.3 - - - - SE 13 17 7 9 1006.5 1006.5 -
03/05:30pm 29.5 - - - - SE 15 17 8 9 1006.3 1006.3 -
03/05:00pm 29.6 - - - - SSE 13 17 7 9 1006.3 1006.2 -
03/04:30pm 29.6 - - - - SSE 17 22 9 12 1006.4 1006.4 -
03/04:00pm 29.5 - - - - SSE 19 24 10 13 1006.0 1006.0 -
03/03:30pm 29.8 - - - - SSE 19 22 10 12 1006.0 1006.0 -
03/03:00pm 29.9 - - - - SSE 20 26 11 14 1005.9 1005.7 -
03/02:30pm 29.6 - - - - SSE 17 24 9 13 1006.1 1006.1 -
03/02:00pm 29.6 - - - - S 15 20 8 11 1006.2 1006.1 -
03/01:30pm 29.7 - - - - S 15 20 8 11 1006.5 1006.5 -
03/01:00pm 29.5 - - - - S 17 22 9 12 1007.0 1006.6 -
03/12:30pm 29.6 - - - - S 17 20 9 11 1007.6 1007.6 -
03/12:00pm 29.6 - - - - S 13 17 7 9 1008.1 1007.9 -
03/11:30am 29.4 - - - - S 15 20 8 11 1008.5 1008.5 -
03/11:00am 29.4 - - - - S 13 15 7 8 1008.8 1008.5 -
03/10:30am 29.4 - - - - SSE 9 11 5 6 1008.9 1008.9 -
03/10:00am 29.5 - - - - SSW 13 17 7 9 1008.8 1008.7 -
03/09:30am 29.0 - - - - SSW 13 17 7 9 1008.9 1008.9 -
03/09:00am 29.0 - - - - SSW 13 15 7 8 1008.7 1008.6 -
03/08:30am 29.0 - - - - SW 15 17 8 9 1008.4 1008.4 -
03/08:00am 29.0 - - - - SW 13 17 7 9 1008.2 1008.1 -
03/07:30am 28.8 - - - - SW 15 17 8 9 1008.2 1008.2 -
03/07:00am 28.8 - - - - SW 13 15 7 8 1008.0 1008.0 -
03/06:30am 28.7 - - - - SW 13 17 7 9 1007.6 1007.6 -
03/06:00am 28.8 - - - - WSW 13 17 7 9 1007.3 1007.4 -
03/05:30am 28.8 - - - - WSW 13 17 7 9 1006.9 1006.9 -
03/05:00am 28.7 - - - - WSW 13 17 7 9 1006.8 1006.7 -
03/04:30am 28.8 - - - - WSW 15 19 8 10 1006.6 1006.6 -
03/04:00am 28.8 - - - - WSW 15 17 8 9 1006.7 1006.6 -
03/03:30am 28.7 - - - - WSW 15 19 8 10 1006.5 1006.5 -
03/03:00am 28.8 - - - - WSW 13 15 7 8 1006.4 1006.3 -
03/02:30am 28.9 - - - - W 15 17 8 9 1006.3 1006.3 -
03/02:00am 28.9 - - - - W 13 15 7 8 1006.4 1006.3 -
03/01:30am 28.9 - - - - W 13 15 7 8 1006.6 1006.6 -
03/01:00am 28.9 - - - - W 11 15 6 8 1006.9 1006.7 -
03/12:30am 29.0 - - - - W 9 11 5 6 1007.3 1007.3 -
03/12:00am 29.0 - - - - WSW 9 11 5 6 1007.5 1007.4 -
 
Date/Time
WST
Temp
°C
App
Temp
°C
Dew
Point
Rel
Hum
%
Delta-T
°C
Wind Press
QNH
hPa
Press
MSL
hPa
Rain
since 9 am
mm
Dir
 
Spd
km/h
Gust
km/h
Spd
kts
Gust
kts
02/11:30pm 29.1 - - - - W 11 15 6 8 1007.5 1007.5 -
02/11:00pm 29.3 - - - - WSW 11 15 6 8 1007.6 1007.6 -
02/10:30pm 29.3 - - - - WSW 11 13 6 7 1007.6 1007.6 -
02/10:00pm 29.2 - - - - WSW 11 13 6 7 1007.3 1007.3 -
02/09:30pm 29.3 - - - - W 9 11 5 6 1007.0 1007.0 -
02/09:00pm 29.3 - - - - WSW 9 11 5 6 1006.8 1006.8 -
02/08:30pm 29.3 - - - - W 9 13 5 7 1006.7 1006.7 -
02/08:00pm 29.2 - - - - WSW 9 13 5 7 1006.5 1006.4 -
02/07:30pm 29.4 - - - - WSW 9 13 5 7 1006.3 1006.3 -
02/07:00pm 29.4 - - - - SW 7 11 4 6 1006.0 1006.0 -
02/06:30pm 29.3 - - - - SSW 9 11 5 6 1005.7 1005.7 -
02/06:00pm 29.3 - - - - SSW 13 15 7 8 1005.2 1005.1 -
02/05:30pm 29.2 - - - - SW 15 17 8 9 1005.1 1005.1 -
02/05:00pm 29.2 - - - - SSW 17 20 9 11 1004.9 1004.9 -
02/04:30pm 29.3 - - - - SSW 17 19 9 10 1004.7 1004.7 -
02/04:00pm 29.2 - - - - SW 13 19 7 10 1004.7 1004.7 -
02/03:30pm 29.4 - - - - SW 15 19 8 10 1004.6 1004.6 -
02/03:00pm 29.4 - - - - SSW 17 20 9 11 1004.7 1004.6 -
02/02:30pm 29.3 - - - - SSW 17 20 9 11 1005.1 1005.1 -
02/02:00pm 29.4 - - - - SW 20 24 11 13 1005.5 1005.3 -
02/01:30pm 29.2 - - - - SW 20 24 11 13 1005.8 1005.8 -
02/01:00pm 29.3 - - - - SW 19 22 10 12 1006.2 1006.0 -
02/12:30pm 29.0 - - - - SW 20 24 11 13 1006.6 1006.6 -
02/12:00pm 29.0 - - - - SW 20 26 11 14 1006.9 1006.7 -
02/11:30am 29.1 - - - - SSW 17 22 9 12 1007.3 1007.3 -
02/11:00am 29.0 - - - - SSW 19 22 10 12 1007.7 1007.5 -
02/10:30am 29.0 - - - - SW 19 22 10 12 1007.9 1007.9 -
02/10:00am 29.0 - - - - SW 19 22 10 12 1007.9 1007.8 -
02/09:30am 29.0 - - - - SW 20 24 11 13 1008.0 1008.0 -
02/09:00am 29.0 - - - - SW 20 22 11 12 1007.9 1007.8 -
02/08:30am 28.9 - - - - WSW 22 26 12 14 1007.7 1007.7 -
02/08:00am 28.9 - - - - WSW 24 28 13 15 1007.3 1007.2 -
02/07:30am 28.8 - - - - WSW 24 28 13 15 1006.9 1006.9 -
02/07:00am 28.8 - - - - WSW 22 28 12 15 1006.8 1006.8 -
02/06:30am 28.8 - - - - WSW 20 22 11 12 1006.7 1006.7 -
02/06:00am 28.8 - - - - WSW 19 24 10 13 1006.7 1006.6 -
02/05:30am 28.8 - - - - W 19 20 10 11 1006.7 1006.7 -
02/05:00am 28.9 - - - - WSW 19 20 10 11 1006.4 1006.4 -
02/04:30am 28.8 - - - - WSW 19 22 10 12 1006.2 1006.2 -
02/04:00am 28.8 - - - - W 20 24 11 13 1006.2 1006.0 -
02/03:30am 28.9 - - - - W 19 20 10 11 1006.3 1006.3 -
02/03:00am 29.0 - - - - WSW 19 22 10 12 1006.5 1006.3 -
02/02:30am 29.0 - - - - W 19 24 10 13 1006.6 1006.6 -
02/02:00am 29.0 - - - - W 17 20 9 11 1006.7 1006.5 -
02/01:30am 29.1 - - - - WSW 17 19 9 10 1007.2 1007.2 -
02/01:00am 29.1 - - - - WSW 17 20 9 11 1007.3 1007.3 -
02/12:30am 29.2 - - - - WSW 15 19 8 10 1007.3 1007.3 -
02/12:00am 29.1 - - - - W 15 19 8 10 1007.4 1007.3 -
 
Date/Time
WST
Temp
°C
App
Temp
°C
Dew
Point
Rel
Hum
%
Delta-T
°C
Wind Press
QNH
hPa
Press
MSL
hPa
Rain
since 9 am
mm
Dir
 
Spd
km/h
Gust
km/h
Spd
kts
Gust
kts
01/11:30pm 29.2 - - - - WSW 13 17 7 9 1007.6 1007.6 -
01/11:00pm 29.2 - - - - W 15 19 8 10 1007.8 1007.5 -
01/10:30pm 29.2 - - - - WSW 15 19 8 10 1007.9 1007.9 -
01/10:00pm 29.2 - - - - WSW 15 19 8 10 1007.8 1007.7 -
01/09:30pm 29.2 - - - - WSW 17 20 9 11 1007.8 1007.8 -
01/09:00pm 29.2 - - - - WSW 13 17 7 9 1007.7 1007.6 -
01/08:30pm 29.3 - - - - WSW 13 17 7 9 1007.4 1007.4 -
01/08:00pm 29.4 - - - - WSW 15 17 8 9 1006.9 1007.0 -
01/07:30pm 29.3 - - - - WSW 15 19 8 10 1006.7 1006.7 -
01/07:00pm 29.2 - - - - WSW 15 19 8 10 1006.4 1006.4 -
01/06:30pm 29.3 - - - - WSW 15 17 8 9 1006.3 1006.3 -
01/06:00pm 29.3 - - - - WSW 13 17 7 9 1006.2 1006.1 -
01/05:30pm 29.3 - - - - WSW 13 17 7 9 1006.1 1006.1 -
01/05:00pm 29.4 - - - - SW 13 17 7 9 1005.9 1005.9 -
01/04:30pm 29.5 - - - - SW 15 19 8 10 1005.7 1005.7 -
01/04:00pm 29.5 - - - - SW 13 17 7 9 1005.7 1005.6 -
01/03:30pm 29.5 - - - - WSW 13 15 7 8 1006.1 1006.1 -
01/03:00pm 29.6 - - - - SW 13 17 7 9 1006.3 1006.2 -
01/02:30pm 29.5 - - - - SW 13 17 7 9 1006.5 1006.5 -
01/02:00pm 29.4 - - - - SSW 15 19 8 10 1006.6 1006.4 -
01/01:30pm 29.6 - - - - SSW 15 17 8 9 1007.0 1007.0 -
01/01:00pm 29.3 - - - - SSW 17 20 9 11 1007.3 1007.1 -
01/12:30pm 29.4 - - - - SW 19 22 10 12 1007.6 1007.6 -

Other Formats:

Comma delimited format used in spreadsheet applications
http://www.bom.gov.au/fwo/IDW60801/IDW60801.94207.axf

JavaScript Object Notation format (JSON) in row-major order
http://www.bom.gov.au/fwo/IDW60801/IDW60801.94207.json